Terminal Aerodrome Forecast
Issued by NWS

Home | Current Version | Previous Version | Text Only | Print | Product List | Glossary On
Versions: 1 2 3 4 5 6 7 8 9 10 11 12 13 14 15
000
FTUS44 KLZK 010500
TAFPBF
TAF
KPBF 010533Z 0106/0206 22005KT P6SM SCT060 SCT250
     FM011200 23006KT P6SM FEW015 SCT250
     FM011600 23007KT P6SM SCT050 SCT250
     FM011900 23009G18KT P6SM VCTS SCT050CB SCT100 BKN250=

USA.gov is the U.S. government's official web portal to all federal, state and local government web resources and services.